createdAt,value
2023-04-02T00:00:01.408Z,4.78
2023-04-02T00:16:01.384Z,4.56
2023-04-02T00:31:01.474Z,4.39
2023-04-02T00:46:01.446Z,4.17
2023-04-02T01:00:01.361Z,4.17
2023-04-02T01:16:01.376Z,4
2023-04-02T01:31:01.412Z,3.78
2023-04-02T01:46:01.379Z,3.5
2023-04-02T02:00:01.328Z,3.28
2023-04-02T02:16:01.348Z,3.11
2023-04-02T02:31:01.401Z,2.94
2023-04-02T02:46:01.323Z,2.89
2023-04-02T03:00:01.366Z,2.83
2023-04-02T03:16:01.485Z,2.72
2023-04-02T03:31:01.426Z,2.67
2023-04-02T03:46:01.409Z,2.56
2023-04-02T04:00:01.423Z,2.44
2023-04-02T04:16:01.321Z,2.39
2023-04-02T04:31:01.327Z,2.28
2023-04-02T04:46:01.497Z,2.28
2023-04-02T05:00:01.349Z,2.28
2023-04-02T05:16:01.541Z,2.33
2023-04-02T05:31:01.385Z,2.5
2023-04-02T05:46:01.320Z,2.94
2023-04-02T06:00:01.339Z,3.67
2023-04-02T06:16:01.586Z,4.22
2023-04-02T06:31:01.341Z,4.5
2023-04-02T06:46:02.208Z,4.39
2023-04-02T07:00:01.351Z,4.67
2023-04-02T07:16:01.367Z,5
2023-04-02T07:31:01.342Z,5.61
2023-04-02T07:46:01.369Z,6.28
2023-04-02T08:00:01.314Z,6.94
2023-04-02T08:16:01.330Z,7.56
2023-04-02T08:31:01.304Z,8.33
2023-04-02T08:46:01.374Z,9.22
2023-04-02T09:00:01.412Z,10
2023-04-02T09:16:01.700Z,10.5
2023-04-02T09:31:05.502Z,11.44
2023-04-02T09:46:00.488Z,11.89
2023-04-02T10:00:01.825Z,12.61
2023-04-02T10:16:02.845Z,13.5
2023-04-02T10:31:04.357Z,14.39
2023-04-02T10:46:00.141Z,14.5
2023-04-02T11:00:01.264Z,14.39
2023-04-02T11:16:02.286Z,14.72
2023-04-02T11:31:03.300Z,15.22
2023-04-02T11:46:04.094Z,15.11
2023-04-02T11:59:59.967Z,15.56
2023-04-02T12:16:00.952Z,16.56
2023-04-02T12:31:01.691Z,16.56
2023-04-02T12:46:02.845Z,15.39
2023-04-02T13:00:03.464Z,15.11
2023-04-02T13:16:04.199Z,15.5
2023-04-02T13:30:59.961Z,15.17
2023-04-02T13:46:00.801Z,14.33
2023-04-02T14:00:15.170Z,14.28
2023-04-02T14:16:02.529Z,14.83
2023-04-02T14:31:03.628Z,14.22
2023-04-02T14:46:04.628Z,14.28
2023-04-02T15:00:00.627Z,14.67
2023-04-02T15:16:01.687Z,14.67
2023-04-02T15:31:13.697Z,15
2023-04-02T15:46:03.621Z,14.67
2023-04-02T15:59:59.596Z,14.06
2023-04-02T16:16:00.526Z,13.61
2023-04-02T16:31:01.349Z,13.33
2023-04-02T16:46:02.405Z,13.17
2023-04-02T17:00:03.168Z,13.06
2023-04-02T17:16:04.432Z,12.94
2023-04-02T17:31:00.258Z,12.67
2023-04-02T17:46:01.415Z,12.28
2023-04-02T18:00:02.122Z,12
2023-04-02T18:16:03.218Z,11.44
2023-04-02T18:31:04.270Z,11.17
2023-04-02T18:46:00.186Z,10.89
2023-04-02T19:00:00.987Z,10.67
2023-04-02T19:16:02.157Z,10.5
2023-04-02T19:31:03.058Z,10.5
2023-04-02T19:46:03.696Z,10.44
2023-04-02T20:00:04.568Z,10.39
2023-04-02T20:16:00.368Z,10.28
2023-04-02T20:31:01.418Z,10.28
2023-04-02T20:46:02.308Z,10.17
2023-04-02T21:00:02.909Z,10.06
2023-04-02T21:16:03.764Z,10
2023-04-02T21:31:04.573Z,9.94
2023-04-02T21:46:00.291Z,9.83
2023-04-02T22:00:00.982Z,9.72
2023-04-02T22:16:02.032Z,9.56
2023-04-02T22:31:03.171Z,9.44
2023-04-02T22:46:06.539Z,9.33
2023-04-02T22:59:59.962Z,9.28
2023-04-02T23:16:01.106Z,9.17
2023-04-02T23:31:01.935Z,9.11
2023-04-02T23:46:02.885Z,9
